createdAt,value
2019-04-16T00:01:02.625Z,71.240234
2019-04-16T00:02:12.016Z,71.240234
2019-04-16T00:03:23.017Z,71.343994
2019-04-16T00:04:31.985Z,71.447754
2019-04-16T00:05:41.501Z,71.447754
2019-04-16T00:06:51.001Z,71.343994
2019-04-16T00:08:00.504Z,71.447754
2019-04-16T00:09:11.004Z,71.655273
2019-04-16T00:10:20.516Z,71.655273
2019-04-16T00:11:30.034Z,71.447754
2019-04-16T00:12:39.548Z,71.136475
2019-04-16T00:13:49.066Z,70.721436
2019-04-16T00:14:58.568Z,70.379639
2019-04-16T00:16:12.591Z,70.275879
2019-04-16T00:17:18.579Z,70.068359
2019-04-16T00:18:28.082Z,70.068359
2019-04-16T00:19:37.584Z,70.172119
2019-04-16T00:20:47.110Z,70.275879
2019-04-16T00:21:56.616Z,70.379639
2019-04-16T00:23:06.124Z,70.379639
2019-04-16T00:24:18.113Z,70.275879
2019-04-16T00:25:25.131Z,70.275879
2019-04-16T00:26:34.642Z,70.172119
2019-04-16T00:27:44.159Z,70.068359
2019-04-16T00:28:53.679Z,70.068359
2019-04-16T00:30:05.268Z,70.037842
2019-04-16T00:31:13.666Z,70.172119
2019-04-16T00:32:25.891Z,70.379639
2019-04-16T00:33:32.661Z,70.275879
2019-04-16T00:34:44.727Z,70.275879
2019-04-16T00:35:52.665Z,70.098877
2019-04-16T00:37:02.203Z,70.928955
2019-04-16T00:38:11.693Z,71.276855
2019-04-16T00:39:24.240Z,71.691895
2019-04-16T00:40:30.706Z,72.521973
2019-04-16T00:41:40.213Z,72.65625
2019-04-16T00:42:49.721Z,73.388672
2019-04-16T00:43:59.230Z,73.071289
2019-04-16T00:45:08.744Z,73.071289
2019-04-16T00:46:18.264Z,74.01123
2019-04-16T00:47:27.767Z,73.803711
2019-04-16T00:48:37.267Z,73.596191
2019-04-16T00:49:46.776Z,74.01123
2019-04-16T00:50:56.295Z,73.699951
2019-04-16T00:52:06.642Z,72.967529
2019-04-16T00:53:15.310Z,72.967529
2019-04-16T00:54:24.821Z,73.284912
2019-04-16T00:55:34.363Z,73.284912
2019-04-16T00:56:46.569Z,73.181152
2019-04-16T00:57:53.362Z,72.86377
2019-04-16T00:59:02.865Z,72.937012
2019-04-16T01:00:12.367Z,72.625732
2019-04-16T01:01:21.900Z,72.521973
2019-04-16T01:02:31.440Z,72.210693
2019-04-16T01:03:40.950Z,72.210693
2019-04-16T01:04:50.454Z,72.210693
2019-04-16T01:05:59.979Z,72.314453
2019-04-16T01:07:10.470Z,72.418213
2019-04-16T01:08:19.977Z,72.418213
2019-04-16T01:09:29.476Z,72.65625
2019-04-16T01:10:38.986Z,72.76001
2019-04-16T01:11:48.831Z,73.699951
2019-04-16T01:12:58.065Z,74.249268
2019-04-16T01:14:07.577Z,74.041748
2019-04-16T01:15:17.084Z,74.456787
2019-04-16T01:16:26.621Z,74.597168
2019-04-16T01:17:37.104Z,75.012207
2019-04-16T01:18:46.603Z,75.012207
2019-04-16T01:19:56.110Z,75.878906
2019-04-16T01:21:05.642Z,77.648926
2019-04-16T01:22:16.818Z,77.233887
2019-04-16T01:23:25.628Z,77.648926
2019-04-16T01:24:35.139Z,77.441406
2019-04-16T01:25:44.643Z,77.441406
2019-04-16T01:26:55.335Z,77.752686
2019-04-16T01:28:03.696Z,77.856445
2019-04-16T01:29:13.195Z,77.648926
2019-04-16T01:30:22.693Z,77.752686
2019-04-16T01:31:32.235Z,77.752686
2019-04-16T01:32:43.335Z,77.301025
2019-04-16T01:33:52.218Z,77.301025
2019-04-16T01:35:01.796Z,77.130127
2019-04-16T01:36:11.255Z,77.301025
2019-04-16T01:37:25.474Z,77.508545
2019-04-16T01:38:31.235Z,77.337646
2019-04-16T01:39:40.749Z,77.197266
2019-04-16T01:40:51.248Z,77.197266
2019-04-16T01:42:00.786Z,76.885986
2019-04-16T01:43:10.334Z,76.574707
2019-04-16T01:44:19.824Z,76.885986
2019-04-16T01:45:30.404Z,77.130127
2019-04-16T01:46:39.846Z,77.233887
2019-04-16T01:47:49.356Z,77.233887
2019-04-16T01:48:58.862Z,77.130127
2019-04-16T01:50:12.705Z,76.922607
2019-04-16T01:51:18.874Z,77.130127
2019-04-16T01:52:28.399Z,77.026367
2019-04-16T01:53:37.904Z,77.130127
2019-04-16T01:54:47.416Z,77.026367
2019-04-16T01:55:57.892Z,77.026367
2019-04-16T01:57:07.415Z,76.782227
2019-04-16T01:58:16.921Z,76.574707
2019-04-16T01:59:26.472Z,76.678467
2019-04-16T02:00:36.426Z,76.818848
2019-04-16T02:01:45.476Z,77.026367
2019-04-16T02:02:54.989Z,77.130127
2019-04-16T02:04:04.516Z,77.130127
2019-04-16T02:05:14.020Z,77.233887
2019-04-16T02:06:25.895Z,77.337646
2019-04-16T02:07:34.067Z,77.545166
2019-04-16T02:08:43.579Z,77.856445
2019-04-16T02:09:53.088Z,77.856445
2019-04-16T02:11:02.587Z,78.204346
2019-04-16T02:12:14.099Z,78.314209
2019-04-16T02:13:22.580Z,78.314209
2019-04-16T02:14:32.094Z,78.625488
2019-04-16T02:15:41.626Z,78.729248
2019-04-16T02:16:55.653Z,78.936768
2019-04-16T02:18:01.640Z,79.040527
2019-04-16T02:19:11.145Z,79.248047
2019-04-16T02:20:20.645Z,79.351807
2019-04-16T02:21:30.157Z,79.040527
2019-04-16T02:22:42.205Z,79.144287
2019-04-16T02:23:50.181Z,79.040527
2019-04-16T02:24:59.861Z,79.040527
2019-04-16T02:26:09.194Z,79.144287
2019-04-16T02:27:18.717Z,79.040527
2019-04-16T02:28:29.199Z,79.144287
2019-04-16T02:29:38.708Z,79.699707
2019-04-16T02:30:48.217Z,80.12085
2019-04-16T02:31:57.750Z,79.803467
2019-04-16T02:33:07.258Z,79.907227
2019-04-16T02:34:16.763Z,80.224609
2019-04-16T02:35:26.261Z,80.535889
2019-04-16T02:36:35.785Z,80.950928
2019-04-16T02:37:45.308Z,80.847168
2019-04-16T02:38:54.822Z,80.987549
2019-04-16T02:40:04.338Z,80.987549
2019-04-16T02:41:14.121Z,81.195068
2019-04-16T02:42:23.356Z,81.091309
2019-04-16T02:43:39.380Z,80.987549
2019-04-16T02:44:48.418Z,81.091309
2019-04-16T02:45:57.907Z,81.091309
2019-04-16T02:47:06.032Z,81.091309
2019-04-16T02:48:16.553Z,81.231689
2019-04-16T02:49:24.776Z,81.964111
2019-04-16T02:50:32.742Z,81.652832
2019-04-16T02:51:42.234Z,81.652832
2019-04-16T02:52:52.553Z,81.756592
2019-04-16T02:54:01.416Z,81.964111
2019-04-16T02:55:11.316Z,82.275391
2019-04-16T02:56:20.222Z,82.067871
2019-04-16T02:57:29.728Z,82.067871
2019-04-16T02:58:39.230Z,81.689453
2019-04-16T02:59:48.741Z,82.421875
2019-04-16T03:00:58.244Z,81.793213
2019-04-16T03:02:07.748Z,82.312012
2019-04-16T03:03:17.263Z,82.421875
2019-04-16T03:04:27.683Z,82.629395
2019-04-16T03:05:36.278Z,82.525635
2019-04-16T03:06:45.788Z,82.836914
2019-04-16T03:07:55.299Z,82.940674
2019-04-16T03:09:08.789Z,82.312012
2019-04-16T03:10:15.265Z,82.104492
2019-04-16T03:11:24.784Z,82.312012
2019-04-16T03:12:34.298Z,82.836914
2019-04-16T03:13:43.816Z,82.104492
2019-04-16T03:14:53.318Z,82.629395
2019-04-16T03:16:05.971Z,83.044434
2019-04-16T03:17:13.325Z,82.836914
2019-04-16T03:18:22.863Z,82.977295
2019-04-16T03:19:32.362Z,82.977295
2019-04-16T03:20:42.858Z,81.414795
2019-04-16T03:21:55.422Z,82.141113
2019-04-16T03:23:05.725Z,82.458496
2019-04-16T03:24:12.394Z,81.726074
2019-04-16T03:25:21.892Z,83.709717
2019-04-16T03:26:31.461Z,83.709717
2019-04-16T03:27:41.011Z,83.813477
2019-04-16T03:28:51.526Z,84.020996
2019-04-16T03:30:03.308Z,83.917236
2019-04-16T03:31:19.266Z,83.502197
2019-04-16T03:32:21.997Z,83.569336
2019-04-16T03:33:32.492Z,83.465576
2019-04-16T03:34:42.027Z,83.355713
2019-04-16T03:35:51.529Z,83.355713
2019-04-16T03:37:02.999Z,83.044434
2019-04-16T03:38:11.695Z,83.251953
2019-04-16T03:39:21.037Z,83.044434
2019-04-16T03:40:30.563Z,83.044434
2019-04-16T03:41:40.067Z,82.836914
2019-04-16T03:42:49.600Z,82.733154
2019-04-16T03:44:03.574Z,83.355713
2019-04-16T03:45:09.923Z,83.081055
2019-04-16T03:46:19.100Z,83.398438
2019-04-16T03:47:28.606Z,83.398438
2019-04-16T03:48:38.108Z,82.873535
2019-04-16T03:49:47.637Z,82.666016
2019-04-16T03:50:57.146Z,82.977295
2019-04-16T03:52:08.352Z,82.702637
2019-04-16T03:53:17.994Z,83.435059
2019-04-16T03:54:26.625Z,83.850098
2019-04-16T03:55:36.132Z,83.746338
2019-04-16T03:56:45.716Z,82.910156
2019-04-16T03:57:55.228Z,83.642578
2019-04-16T03:59:04.961Z,84.47876
2019-04-16T04:00:15.310Z,85.003662
2019-04-16T04:01:24.719Z,85.626221
2019-04-16T04:02:34.251Z,85.626221
2019-04-16T04:03:43.761Z,85.003662
2019-04-16T04:05:01.091Z,84.58252
2019-04-16T04:06:10.795Z,84.16748
2019-04-16T04:07:20.351Z,84.47876
2019-04-16T04:08:29.867Z,85.107422
2019-04-16T04:09:39.399Z,84.832764
2019-04-16T04:10:48.947Z,84.411621
2019-04-16T04:11:58.480Z,84.832764
2019-04-16T04:13:08.013Z,85.247803
2019-04-16T04:14:21.882Z,85.772705
2019-04-16T04:15:28.048Z,85.668945
2019-04-16T04:16:37.608Z,85.876465
2019-04-16T04:17:47.228Z,86.083984
2019-04-16T04:18:56.745Z,86.083984
2019-04-16T04:20:06.292Z,85.83374
2019-04-16T04:21:20.892Z,85.626221
2019-04-16T04:22:26.631Z,85.522461
2019-04-16T04:23:35.867Z,85.522461
2019-04-16T04:24:45.424Z,85.72998
2019-04-16T04:25:54.948Z,85.522461
2019-04-16T04:27:04.504Z,85.314941
2019-04-16T04:28:18.419Z,85.626221
2019-04-16T04:29:25.518Z,85.522461
2019-04-16T04:30:35.064Z,85.418701
2019-04-16T04:31:44.615Z,85.418701
2019-04-16T04:32:54.154Z,85.522461
2019-04-16T04:34:03.688Z,85.522461
2019-04-16T04:35:14.217Z,85.522461
2019-04-16T04:36:26.797Z,85.003662
2019-04-16T04:37:34.315Z,85.144043
2019-04-16T04:38:43.888Z,85.040283
2019-04-16T04:39:53.407Z,85.247803
2019-04-16T04:41:03.006Z,85.247803
2019-04-16T04:42:12.442Z,85.668945
2019-04-16T04:43:22.973Z,86.083984
2019-04-16T04:44:36.186Z,86.291504
2019-04-16T04:45:43.007Z,86.254883
2019-04-16T04:46:52.538Z,86.254883
2019-04-16T04:48:02.081Z,86.254883
2019-04-16T04:49:11.604Z,86.151123
2019-04-16T04:50:21.127Z,86.047363
2019-04-16T04:51:30.656Z,86.151123
2019-04-16T04:52:43.189Z,85.900879
2019-04-16T04:53:51.694Z,85.5896
2019-04-16T04:55:01.210Z,85.38208
2019-04-16T04:56:10.742Z,85.064697
2019-04-16T04:57:20.290Z,84.820557
2019-04-16T04:58:33.670Z,84.613037
2019-04-16T04:59:39.332Z,84.503174
2019-04-16T05:00:48.875Z,83.984375
2019-04-16T05:01:58.425Z,83.917236
2019-04-16T05:03:07.949Z,85.339355
2019-04-16T05:04:20.318Z,85.546875
2019-04-16T05:05:27.959Z,85.546875
2019-04-16T05:06:37.513Z,85.339355
2019-04-16T05:07:47.046Z,84.613037
2019-04-16T05:08:57.530Z,84.191895
2019-04-16T05:10:07.321Z,84.503174
2019-04-16T05:11:16.910Z,85.235596
2019-04-16T05:12:25.092Z,85.443115
2019-04-16T05:13:34.632Z,85.131836
2019-04-16T05:14:44.154Z,84.924316
2019-04-16T05:15:53.678Z,85.864258
2019-04-16T05:17:06.399Z,85.406494
2019-04-16T05:18:13.743Z,85.095215
2019-04-16T05:19:23.251Z,85.198975
2019-04-16T05:20:32.801Z,84.259033
2019-04-16T05:21:42.325Z,83.630371
2019-04-16T05:22:53.446Z,83.947754
2019-04-16T05:24:03.399Z,84.466553
2019-04-16T05:25:12.954Z,84.777832
2019-04-16T05:26:22.491Z,84.991455
2019-04-16T05:27:33.003Z,84.94873
2019-04-16T05:28:45.296Z,84.844971
2019-04-16T05:29:53.047Z,84.741211
2019-04-16T05:31:02.579Z,84.49707
2019-04-16T05:32:12.086Z,83.557129
2019-04-16T05:33:21.913Z,84.179688
2019-04-16T05:34:31.170Z,83.624268
2019-04-16T05:35:42.371Z,83.166504
2019-04-16T05:36:51.205Z,81.774902
2019-04-16T05:38:00.755Z,81.634521
2019-04-16T05:39:10.316Z,80.700684
2019-04-16T05:40:19.842Z,81.115723
2019-04-16T05:41:29.357Z,80.389404
2019-04-16T05:42:38.879Z,80.181885
2019-04-16T05:43:48.429Z,80.389404
2019-04-16T05:44:57.974Z,80.352783
2019-04-16T05:46:08.710Z,79.620361
2019-04-16T05:47:18.229Z,79.412842
2019-04-16T05:48:26.509Z,79.272461
2019-04-16T05:49:36.072Z,78.027344
2019-04-16T05:50:45.587Z,78.094482
2019-04-16T05:51:55.095Z,77.679443
2019-04-16T05:53:08.227Z,77.990723
2019-04-16T05:54:16.134Z,77.783203
2019-04-16T05:55:25.673Z,76.812744
2019-04-16T05:56:35.194Z,77.124023
2019-04-16T05:57:44.743Z,76.470947
2019-04-16T05:58:54.280Z,76.367188
2019-04-16T06:00:09.146Z,75.744629
2019-04-16T06:01:15.456Z,75.22583
2019-04-16T06:02:24.826Z,75.292969
2019-04-16T06:03:34.360Z,75.292969
2019-04-16T06:04:43.876Z,74.981689
2019-04-16T06:05:53.411Z,75.292969
2019-04-16T06:07:07.521Z,74.981689
2019-04-16T06:08:13.420Z,74.530029
2019-04-16T06:09:23.191Z,74.32251
2019-04-16T06:10:32.503Z,73.907471
2019-04-16T06:11:42.039Z,74.21875
2019-04-16T06:12:51.601Z,73.907471
2019-04-16T06:14:01.113Z,74.01123
2019-04-16T06:15:10.649Z,74.084473
2019-04-16T06:16:23.875Z,73.461914
2019-04-16T06:17:32.122Z,73.321533
2019-04-16T06:18:40.245Z,72.808838
2019-04-16T06:19:49.787Z,72.601318
2019-04-16T06:20:59.284Z,72.601318
2019-04-16T06:22:08.810Z,72.290039
2019-04-16T06:23:18.360Z,72.668457
2019-04-16T06:24:27.905Z,72.357178
2019-04-16T06:25:40.924Z,71.734619
2019-04-16T06:26:48.080Z,72.045898
2019-04-16T06:27:57.539Z,72.253418
2019-04-16T06:29:07.181Z,72.32666
2019-04-16T06:30:16.827Z,72.015381
2019-04-16T06:31:26.270Z,71.807861
2019-04-16T06:32:35.792Z,71.362305
2019-04-16T06:33:45.337Z,70.977783
2019-04-16T06:34:54.912Z,71.466064
2019-04-16T06:36:04.427Z,71.154785
2019-04-16T06:37:14.165Z,71.221924
2019-04-16T06:38:24.506Z,70.812988
2019-04-16T06:39:34.207Z,70.568848
2019-04-16T06:40:43.746Z,70.056152
2019-04-16T06:41:53.267Z,70.159912
2019-04-16T06:43:02.960Z,70.025635
2019-04-16T06:44:12.331Z,69.714355
2019-04-16T06:45:21.862Z,69.165039
2019-04-16T06:46:31.385Z,68.927002
2019-04-16T06:47:42.742Z,68.304443
2019-04-16T06:48:51.454Z,68.103027
2019-04-16T06:50:00.977Z,68.377686
2019-04-16T06:51:12.402Z,67.86499
2019-04-16T06:52:20.061Z,67.449951
2019-04-16T06:53:30.504Z,67.004395
2019-04-16T06:54:39.211Z,67.285156
2019-04-16T06:55:49.753Z,66.326904
2019-04-16T06:56:59.278Z,64.959717
2019-04-16T06:58:08.807Z,65.161133
2019-04-16T06:59:19.538Z,64.51416
2019-04-16T07:00:33.651Z,63.897705
2019-04-16T07:01:41.985Z,63.867188
2019-04-16T07:03:01.563Z,63.739014
2019-04-16T07:04:00.367Z,62.677002
2019-04-16T07:05:10.872Z,62.371826
2019-04-16T07:06:20.379Z,62.139893
2019-04-16T07:07:39.432Z,61.181641
2019-04-16T07:08:41.920Z,60.540771
2019-04-16T07:09:50.956Z,60.510254
2019-04-16T07:11:01.449Z,59.973145
2019-04-16T07:12:10.992Z,58.612061
2019-04-16T07:13:20.604Z,59.25293
2019-04-16T07:14:30.080Z,59.326172
2019-04-16T07:15:40.588Z,58.300781
2019-04-16T07:16:50.129Z,57.971191
2019-04-16T07:18:02.405Z,57.867432
2019-04-16T07:19:11.129Z,57.940674
2019-04-16T07:20:20.669Z,57.299805
2019-04-16T07:21:30.345Z,56.890869
2019-04-16T07:22:39.719Z,55.944824
2019-04-16T07:23:49.385Z,57.196045
2019-04-16T07:25:03.626Z,56.866455
2019-04-16T07:26:13.347Z,56.658936
2019-04-16T07:27:21.277Z,56.433105
2019-04-16T07:28:30.277Z,55.865479
2019-04-16T07:29:39.836Z,55.230713
2019-04-16T07:30:50.317Z,53.387451
2019-04-16T07:31:59.927Z,53.924561
2019-04-16T07:33:09.366Z,53.900146
2019-04-16T07:34:18.885Z,54.718018
2019-04-16T07:35:28.380Z,53.466797
2019-04-16T07:36:37.927Z,53.875732
2019-04-16T07:37:47.444Z,53.338623
2019-04-16T07:38:56.956Z,53.033447
2019-04-16T07:40:09.922Z,52.624512
2019-04-16T07:41:17.099Z,52.807617
2019-04-16T07:42:26.397Z,52.294922
2019-04-16T07:43:34.982Z,52.783203
2019-04-16T07:44:44.490Z,52.453613
2019-04-16T07:45:54.041Z,52.22168
2019-04-16T07:47:03.568Z,51.000977
2019-04-16T07:48:13.106Z,50.567627
2019-04-16T07:49:23.393Z,51.281738
2019-04-16T07:50:33.228Z,50.897217
2019-04-16T07:51:41.599Z,51.306152
2019-04-16T07:52:51.153Z,51.104736
2019-04-16T07:54:02.615Z,51.281738
2019-04-16T07:55:10.188Z,50.341797
2019-04-16T07:56:19.720Z,50.524902
2019-04-16T07:57:29.258Z,49.914551
2019-04-16T07:58:38.792Z,50.292969
2019-04-16T07:59:48.304Z,49.481201
2019-04-16T08:00:57.847Z,49.560547
2019-04-16T08:02:07.384Z,49.053955
2019-04-16T08:03:16.893Z,49.133301
2019-04-16T08:04:29.132Z,47.790527
2019-04-16T08:05:40.992Z,47.814941
2019-04-16T08:06:47.445Z,48.016357
2019-04-16T08:07:56.960Z,48.321533
2019-04-16T08:09:06.523Z,48.443604
2019-04-16T08:10:16.835Z,48.748779
2019-04-16T08:11:25.488Z,48.547363
2019-04-16T08:12:35.019Z,48.626709
2019-04-16T08:13:45.518Z,47.686768
2019-04-16T08:14:55.022Z,47.564697
2019-04-16T08:16:05.626Z,47.949219
2019-04-16T08:17:15.063Z,47.137451
2019-04-16T08:18:24.572Z,47.949219
2019-04-16T08:19:36.925Z,47.015381
2019-04-16T08:20:43.603Z,46.807861
2019-04-16T08:21:54.129Z,46.911621
2019-04-16T08:23:03.660Z,46.179199
2019-04-16T08:24:13.194Z,45.269775
2019-04-16T08:25:22.732Z,44.9646
2019-04-16T08:26:32.258Z,45.513916
2019-04-16T08:27:41.830Z,46.350098
2019-04-16T08:28:52.320Z,46.954346
2019-04-16T08:30:03.316Z,47.338867
2019-04-16T08:31:12.840Z,46.282959
2019-04-16T08:32:20.866Z,45.452881
2019-04-16T08:33:31.379Z,45.123291
2019-04-16T08:34:40.882Z,45.227051
2019-04-16T08:35:50.390Z,44.372559
2019-04-16T08:36:59.909Z,44.458008
2019-04-16T08:38:09.443Z,43.566895
2019-04-16T08:39:18.951Z,43.365479
2019-04-16T08:40:28.522Z,43.463135
2019-04-16T08:41:38.030Z,43.566895
2019-04-16T08:42:47.542Z,44.293213
2019-04-16T08:43:59.643Z,43.994141
2019-04-16T08:45:08.921Z,44.702148
2019-04-16T08:46:18.093Z,44.598389
2019-04-16T08:47:27.623Z,44.598389
2019-04-16T08:48:37.174Z,44.195557
2019-04-16T08:49:46.686Z,44.781494
2019-04-16T08:50:58.173Z,43.041992
2019-04-16T08:52:10.149Z,42.718506
2019-04-16T08:53:17.233Z,43.017578
2019-04-16T08:54:26.728Z,43.829346
2019-04-16T08:55:36.271Z,42.492676
2019-04-16T08:56:45.777Z,42.272949
2019-04-16T08:57:55.307Z,41.467285
2019-04-16T08:59:09.422Z,41.265869
2019-04-16T09:00:15.557Z,40.460205
2019-04-16T09:01:24.833Z,41.387939
2019-04-16T09:02:34.349Z,42.193604
2019-04-16T09:03:43.881Z,42.175293
2019-04-16T09:04:53.518Z,41.748047
2019-04-16T09:06:04.210Z,41.827393
2019-04-16T09:07:13.347Z,41.51001
2019-04-16T09:08:22.982Z,40.50293
2019-04-16T09:09:32.496Z,40.704346
2019-04-16T09:10:44.575Z,41.424561
2019-04-16T09:11:51.655Z,41.912842
2019-04-16T09:13:03.648Z,41.107178
2019-04-16T09:14:10.689Z,40.582275
2019-04-16T09:15:21.222Z,39.654541
2019-04-16T09:16:31.726Z,39.453125
2019-04-16T09:17:41.249Z,40.258789
2019-04-16T09:18:50.799Z,39.556885
2019-04-16T09:20:01.280Z,39.355469
2019-04-16T09:21:11.663Z,39.477539
2019-04-16T09:22:20.746Z,39.39209
2019-04-16T09:23:30.270Z,40.722656
2019-04-16T09:24:41.318Z,42.352295
2019-04-16T09:25:49.290Z,40.740967
2019-04-16T09:26:58.845Z,41.326904
2019-04-16T09:28:23.708Z,40.924072
2019-04-16T09:29:18.883Z,41.809082
2019-04-16T09:30:28.388Z,40.197754
2019-04-16T09:31:37.916Z,39.373779
2019-04-16T09:32:47.424Z,39.172363
2019-04-16T09:33:57.390Z,38.653564
2019-04-16T09:35:10.414Z,39.251709
2019-04-16T09:36:17.919Z,38.812256
2019-04-16T09:37:28.533Z,38.415527
2019-04-16T09:38:36.929Z,36.804199
2019-04-16T09:39:47.533Z,36.602783
2019-04-16T09:40:57.077Z,37.506104
2019-04-16T09:42:06.601Z,37.286377
2019-04-16T09:43:17.895Z,37.072754
2019-04-16T09:44:29.489Z,36.749268
2019-04-16T09:45:37.116Z,36.431885
2019-04-16T09:46:50.791Z,36.816406
2019-04-16T09:47:56.151Z,33.807373
2019-04-16T09:49:06.674Z,33.624268
2019-04-16T09:50:16.268Z,34.039307
2019-04-16T09:51:26.354Z,34.759521
2019-04-16T09:52:35.241Z,34.338379
2019-04-16T09:53:44.787Z,34.057617
2019-04-16T09:54:54.304Z,35.662842
2019-04-16T09:56:03.823Z,35.046387
2019-04-16T09:57:13.477Z,35.546875
2019-04-16T09:58:22.969Z,34.423828
2019-04-16T09:59:32.388Z,34.106445
2019-04-16T10:00:41.908Z,33.404541
2019-04-16T10:01:52.423Z,33.520508
2019-04-16T10:03:01.929Z,34.423828
2019-04-16T10:04:11.521Z,34.210205
2019-04-16T10:05:21.181Z,33.087158
2019-04-16T10:06:39.208Z,33.288574
2019-04-16T10:07:48.719Z,32.489014
2019-04-16T10:08:58.279Z,32.501221
2019-04-16T10:10:07.806Z,33.135986
2019-04-16T10:11:18.858Z,33.752441
2019-04-16T10:12:26.819Z,34.057617
2019-04-16T10:13:36.537Z,34.259033
2019-04-16T10:14:45.823Z,34.539795
2019-04-16T10:15:55.698Z,34.423828
2019-04-16T10:17:04.845Z,33.605957
2019-04-16T10:18:14.475Z,33.789062
2019-04-16T10:19:23.902Z,32.702637
2019-04-16T10:20:33.396Z,33.087158
2019-04-16T10:21:43.884Z,31.768799
2019-04-16T10:22:54.385Z,31.469727
2019-04-16T10:24:03.915Z,32.458496
2019-04-16T10:25:13.452Z,30.639648
2019-04-16T10:26:22.953Z,30.267334
2019-04-16T10:27:32.577Z,30.981445
2019-04-16T10:28:41.955Z,31.903076
2019-04-16T10:29:51.516Z,32.415771
2019-04-16T10:31:01.054Z,31.70166
2019-04-16T10:32:10.549Z,32.116699
2019-04-16T10:33:21.049Z,33.203125
2019-04-16T10:34:30.610Z,33.190918
2019-04-16T10:35:41.083Z,31.768799
2019-04-16T10:36:50.608Z,31.555176
2019-04-16T10:38:00.097Z,31.756592
2019-04-16T10:39:09.612Z,31.268311
2019-04-16T10:40:19.130Z,31.567383
2019-04-16T10:41:28.651Z,30.670166
2019-04-16T10:42:38.181Z,30.36499
2019-04-16T10:43:47.665Z,30.566406
2019-04-16T10:44:57.192Z,30.981445
2019-04-16T10:46:09.678Z,31.396484
2019-04-16T10:47:16.566Z,30.480957
2019-04-16T10:48:25.702Z,30.181885
2019-04-16T10:49:35.179Z,29.278564
2019-04-16T10:50:44.702Z,30.865479
2019-04-16T10:51:54.238Z,30.969238
2019-04-16T10:53:03.731Z,29.968262
2019-04-16T10:54:13.248Z,29.968262
2019-04-16T10:55:22.748Z,30.0354
2019-04-16T10:56:32.289Z,29.223633
2019-04-16T10:57:41.768Z,29.119873
2019-04-16T10:58:51.304Z,28.234863
2019-04-16T11:00:00.893Z,28.033447
2019-04-16T11:01:10.341Z,29.522705
2019-04-16T11:02:19.811Z,29.107666
2019-04-16T11:03:34.368Z,28.692627
2019-04-16T11:04:42.958Z,27.697754
2019-04-16T11:05:49.600Z,28.295898
2019-04-16T11:07:00.132Z,27.893066
2019-04-16T11:08:09.713Z,28.479004
2019-04-16T11:09:19.257Z,28.369141
2019-04-16T11:10:28.777Z,29.150391
2019-04-16T11:11:38.286Z,29.040527
2019-04-16T11:12:47.866Z,26.757812
2019-04-16T11:13:59.948Z,27.557373
2019-04-16T11:15:06.895Z,27.23999
2019-04-16T11:16:16.409Z,26.641846
2019-04-16T11:17:26.026Z,26.831055
2019-04-16T11:18:35.484Z,26.928711
2019-04-16T11:19:44.998Z,26.531982
2019-04-16T11:20:55.575Z,25.732422
2019-04-16T11:22:05.660Z,26.831055
2019-04-16T11:23:14.765Z,26.733398
2019-04-16T11:24:25.268Z,26.940918
2019-04-16T11:25:34.790Z,27.966309
2019-04-16T11:26:44.593Z,26.867676
2019-04-16T11:27:53.810Z,28.155518
2019-04-16T11:29:03.332Z,27.429199
2019-04-16T11:30:12.849Z,26.330566
2019-04-16T11:31:22.415Z,27.630615
2019-04-16T11:32:31.895Z,27.514648
2019-04-16T11:33:42.394Z,27.11792
2019-04-16T11:34:51.935Z,26.422119
2019-04-16T11:36:16.251Z,27.001953
2019-04-16T11:37:11.910Z,27.301025
2019-04-16T11:38:21.401Z,26.904297
2019-04-16T11:39:30.914Z,26.989746
2019-04-16T11:40:41.159Z,27.093506
2019-04-16T11:41:49.937Z,26.782227
2019-04-16T11:42:59.439Z,26.184082
2019-04-16T11:44:15.414Z,26.593018
2019-04-16T11:45:19.490Z,26.519775
2019-04-16T11:46:28.966Z,27.166748
2019-04-16T11:47:38.475Z,28.619385
2019-04-16T11:48:50.174Z,28.521729
2019-04-16T11:49:57.543Z,28.619385
2019-04-16T11:51:07.052Z,29.01001
2019-04-16T11:52:16.552Z,29.693604
2019-04-16T11:53:26.209Z,28.155518
2019-04-16T11:54:35.619Z,27.11792
2019-04-16T11:55:45.180Z,26.184082
2019-04-16T11:56:55.445Z,25.177002
2019-04-16T11:58:05.151Z,25.57373
2019-04-16T11:59:14.713Z,26.330566
2019-04-16T12:00:24.214Z,26.00708
2019-04-16T12:01:33.738Z,24.475098
2019-04-16T12:02:43.282Z,24.487305
2019-04-16T12:03:55.898Z,25.720215
2019-04-16T12:05:02.244Z,25.634766
2019-04-16T12:06:26.484Z,26.171875
2019-04-16T12:07:22.272Z,26.855469
2019-04-16T12:08:31.841Z,27.185059
2019-04-16T12:09:41.342Z,27.667236
2019-04-16T12:10:50.918Z,27.453613
2019-04-16T12:12:00.431Z,27.105713
2019-04-16T12:13:09.923Z,25.671387
2019-04-16T12:14:29.858Z,25.45166
2019-04-16T12:15:29.944Z,24.230957
2019-04-16T12:16:39.485Z,24.145508
2019-04-16T12:17:49.047Z,24.200439
2019-04-16T12:18:58.542Z,22.888184
2019-04-16T12:20:08.432Z,23.791504
2019-04-16T12:21:17.619Z,22.784424
2019-04-16T12:22:27.135Z,23.028564
2019-04-16T12:23:36.663Z,23.31543
2019-04-16T12:24:46.146Z,22.753906
2019-04-16T12:25:55.686Z,22.442627
2019-04-16T12:27:05.251Z,22.631836
2019-04-16T12:28:14.751Z,23.193359
2019-04-16T12:29:24.191Z,22.686768
2019-04-16T12:30:33.704Z,21.984863
2019-04-16T12:31:43.241Z,22.784424
2019-04-16T12:32:52.747Z,22.08252
2019-04-16T12:34:02.284Z,21.75293
2019-04-16T12:35:11.832Z,21.435547
2019-04-16T12:36:21.324Z,20.825195
2019-04-16T12:37:30.838Z,20.623779
2019-04-16T12:38:41.344Z,20.220947
2019-04-16T12:39:50.869Z,19.934082
2019-04-16T12:41:00.393Z,20.440674
2019-04-16T12:42:09.912Z,20.623779
2019-04-16T12:43:19.413Z,20.97168
2019-04-16T12:44:44.080Z,21.844482
2019-04-16T12:45:39.429Z,21.42334
2019-04-16T12:46:48.947Z,20.239258
2019-04-16T12:47:59.075Z,21.19751
2019-04-16T12:49:08.009Z,20.904541
2019-04-16T12:50:17.615Z,20.489502
2019-04-16T12:51:27.050Z,19.689941
2019-04-16T12:52:36.667Z,19.805908
2019-04-16T12:53:46.158Z,19.787598
2019-04-16T12:54:59.220Z,20.269775
2019-04-16T12:56:08.400Z,20.794678
2019-04-16T12:57:16.594Z,20.794678
2019-04-16T12:58:25.622Z,20.52002
2019-04-16T12:59:34.653Z,21.020508
2019-04-16T13:00:44.141Z,21.270752
2019-04-16T13:01:53.673Z,22.08252
2019-04-16T13:03:03.175Z,23.205566
2019-04-16T13:04:12.693Z,23.846436
2019-04-16T13:05:22.225Z,24.963379
2019-04-16T13:06:31.727Z,24.761963
2019-04-16T13:07:41.234Z,25.073242
2019-04-16T13:08:53.371Z,26.104736
2019-04-16T13:10:00.385Z,26.23291
2019-04-16T13:11:09.757Z,26.23291
2019-04-16T13:12:19.272Z,25.476074
2019-04-16T13:13:28.798Z,25.3479
2019-04-16T13:14:38.290Z,24.731445
2019-04-16T13:15:47.821Z,23.699951
2019-04-16T13:16:57.329Z,23.602295